Time;durP1;ratioP1;P1;durP2;ratioP2;P2;SDS_P1;SDS_P2;PMS_P1;PMS_P2;Temp;Humidity;BMP_temperature;BMP_pressure;BME280_temperature;BME280_humidity;BME280_pressure;Samples;Min_cycle;Max_cycle;Signal;HPM_P1;HPM_P2
2022/03/12 00:00:09;;;;;;;11.18;7.03;;;6.00;45.90;;;;;;4976277;28;20049;-83
2022/03/12 00:02:35;;;;;;;10.63;6.95;;;6.00;45.90;;;;;;4975798;28;20117;-83
2022/03/12 00:05:07;;;;;;;10.35;6.85;;;6.00;46.10;;;;;;4965184;28;20235;-83
2022/03/12 00:07:34;;;;;;;11.18;6.93;;;5.90;46.30;;;;;;4976790;28;20050;-83
2022/03/12 00:10:00;;;;;;;16.52;6.97;;;5.90;46.40;;;;;;4975436;28;20046;-83
2022/03/12 00:12:30;;;;;;;12.13;7.03;;;5.90;46.40;;;;;;4961299;28;20044;-83
2022/03/12 00:14:56;;;;;;;14.43;7.10;;;5.90;46.40;;;;;;4976221;28;20113;-81
2022/03/12 00:17:25;;;;;;;13.82;7.00;;;5.90;46.40;;;;;;4975341;28;20105;-83
2022/03/12 00:19:51;;;;;;;10.63;7.20;;;5.80;46.40;;;;;;4971504;28;20046;-82
2022/03/12 00:22:17;;;;;;;13.85;7.00;;;5.80;46.30;;;;;;4976158;28;20053;-82
2022/03/12 00:24:46;;;;;;;19.08;8.18;;;5.80;46.50;;;;;;4975591;28;20506;-83
2022/03/12 00:27:13;;;;;;;11.13;7.57;;;5.80;46.40;;;;;;4990329;28;20054;-82
2022/03/12 00:29:38;;;;;;;12.05;7.10;;;5.80;46.60;;;;;;4967987;28;20047;-84
2022/03/12 00:32:06;;;;;;;16.15;7.03;;;5.80;46.50;;;;;;4989287;28;20057;-83
2022/03/12 00:34:31;;;;;;;10.40;6.63;;;5.80;46.50;;;;;;4983949;28;20055;-82
2022/03/12 00:36:57;;;;;;;9.10;6.60;;;5.80;46.50;;;;;;4961916;28;20053;-82
2022/03/12 00:39:23;;;;;;;11.90;6.63;;;5.80;46.70;;;;;;4976360;28;20062;-84
2022/03/12 00:41:48;;;;;;;14.18;6.75;;;5.80;46.60;;;;;;4955028;28;20046;-86
2022/03/12 00:44:19;;;;;;;11.60;6.75;;;5.80;46.60;;;;;;5001857;28;20483;-83
2022/03/12 00:46:46;;;;;;;11.80;7.00;;;5.80;46.40;;;;;;4992298;28;20050;-83
2022/03/12 00:49:11;;;;;;;12.73;6.90;;;5.80;46.40;;;;;;4990786;28;20193;-83
2022/03/12 00:51:41;;;;;;;14.68;6.88;;;5.80;46.10;;;;;;4982639;28;20129;-82
2022/03/12 00:54:07;;;;;;;18.02;7.00;;;5.90;46.50;;;;;;4965571;28;20050;-84
2022/03/12 00:56:33;;;;;;;12.77;6.63;;;5.90;46.40;;;;;;4992146;28;20329;-82
2022/03/12 00:58:59;;;;;;;15.85;7.90;;;5.90;46.30;;;;;;4974324;28;20172;-82
2022/03/12 01:01:28;;;;;;;17.10;7.00;;;5.90;46.30;;;;;;4988972;28;20615;-82
2022/03/12 01:03:54;;;;;;;10.07;6.50;;;5.90;46.30;;;;;;4991442;28;20046;-83
2022/03/12 01:06:20;;;;;;;12.65;6.53;;;6.00;46.40;;;;;;4969771;28;20124;-81
2022/03/12 01:08:46;;;;;;;13.60;7.20;;;6.00;46.30;;;;;;4974596;28;20192;-82
2022/03/12 01:11:13;;;;;;;9.88;6.53;;;6.00;46.20;;;;;;4966503;28;20053;-82
2022/03/12 01:13:39;;;;;;;11.63;7.00;;;6.00;46.10;;;;;;4974717;28;20057;-81
2022/03/12 01:16:06;;;;;;;10.88;6.95;;;6.00;46.10;;;;;;4974950;28;20163;-82
2022/03/12 01:18:36;;;;;;;15.30;7.18;;;6.00;46.00;;;;;;4989059;28;20041;-83
2022/03/12 01:21:11;;;;;;;14.98;7.18;;;6.10;45.90;;;;;;4964153;28;20043;-81
2022/03/12 01:23:37;;;;;;;10.93;6.47;;;6.10;45.60;;;;;;4979269;28;20043;-81
2022/03/12 01:26:03;;;;;;;10.65;6.05;;;6.10;45.70;;;;;;4986125;28;20062;-81
2022/03/12 01:28:29;;;;;;;11.30;6.45;;;6.20;45.70;;;;;;4974301;28;20038;-81
2022/03/12 01:30:55;;;;;;;12.35;7.20;;;6.10;45.60;;;;;;4990816;28;20046;-82
2022/03/12 01:33:20;;;;;;;11.52;6.72;;;6.10;45.60;;;;;;4990184;28;20042;-81
2022/03/12 01:35:46;;;;;;;11.65;6.68;;;6.20;45.60;;;;;;4974442;28;20391;-82
2022/03/12 01:38:13;;;;;;;17.52;6.80;;;6.20;45.50;;;;;;4991523;28;20050;-81
2022/03/12 01:40:38;;;;;;;12.50;6.80;;;6.20;45.60;;;;;;4973015;28;20496;-83
2022/03/12 01:43:05;;;;;;;10.82;6.68;;;6.20;45.60;;;;;;4970564;28;20046;-81
2022/03/12 01:45:32;;;;;;;13.80;6.82;;;6.20;45.80;;;;;;4990221;28;20038;-81
2022/03/12 01:48:04;;;;;;;13.32;6.65;;;6.20;46.00;;;;;;4973977;28;20551;-80
2022/03/12 01:50:32;;;;;;;12.15;7.07;;;6.10;46.20;;;;;;4987189;28;20046;-82
2022/03/12 01:53:02;;;;;;;11.48;6.90;;;6.10;46.20;;;;;;4988547;28;20058;-84
2022/03/12 01:55:30;;;;;;;11.88;6.60;;;6.10;46.30;;;;;;4979897;28;20058;-81
2022/03/12 01:58:02;;;;;;;10.60;6.80;;;6.10;46.40;;;;;;4961171;28;20047;-81
2022/03/12 02:00:41;;;;;;;9.80;6.57;;;6.10;46.10;;;;;;4961404;28;20081;-82
2022/03/12 02:03:07;;;;;;;16.15;6.65;;;6.10;46.20;;;;;;4955540;28;20053;-81
2022/03/12 02:05:34;;;;;;;11.32;6.97;;;6.10;46.20;;;;;;4939952;28;20109;-82
2022/03/12 02:08:01;;;;;;;12.18;6.90;;;6.10;46.40;;;;;;4956279;28;20133;-82
2022/03/12 02:10:28;;;;;;;9.95;6.72;;;6.10;46.50;;;;;;4929046;28;20050;-81
2022/03/12 02:12:54;;;;;;;11.45;6.55;;;6.00;46.50;;;;;;4950802;28;20644;-84
2022/03/12 02:15:21;;;;;;;12.30;6.90;;;6.00;46.50;;;;;;4944509;28;20073;-82
2022/03/12 02:17:47;;;;;;;11.02;6.32;;;6.00;46.50;;;;;;4953417;28;20504;-83
2022/03/12 02:20:16;;;;;;;14.93;7.18;;;6.00;46.60;;;;;;4954801;28;20089;-81
2022/03/12 02:22:44;;;;;;;11.48;6.72;;;6.00;46.80;;;;;;4957856;28;20051;-82
2022/03/12 02:25:10;;;;;;;10.75;6.80;;;5.90;46.80;;;;;;4956586;28;20047;-82
2022/03/12 02:27:37;;;;;;;11.95;7.13;;;6.00;47.50;;;;;;4938310;28;20054;-81
2022/03/12 02:30:04;;;;;;;10.18;6.88;;;5.90;46.80;;;;;;4944052;28;20531;-84
2022/03/12 02:32:29;;;;;;;9.93;6.80;;;5.90;46.90;;;;;;4942562;28;20061;-81
2022/03/12 02:34:58;;;;;;;14.57;7.25;;;5.90;47.10;;;;;;4943207;28;20047;-85
2022/03/12 02:37:30;;;;;;;11.77;7.00;;;5.90;46.90;;;;;;4940325;28;20054;-81
2022/03/12 02:40:09;;;;;;;14.32;8.20;;;5.90;47.00;;;;;;4926274;28;20134;-86
2022/03/12 02:42:37;;;;;;;11.60;6.97;;;5.90;47.10;;;;;;4943793;28;20039;-83
2022/03/12 02:45:07;;;;;;;12.10;6.65;;;5.90;47.10;;;;;;4940948;28;20054;-83
2022/03/12 02:47:35;;;;;;;11.15;6.07;;;5.90;47.20;;;;;;4954315;28;20055;-81
2022/03/12 02:50:07;;;;;;;11.10;7.07;;;5.90;47.30;;;;;;4949539;28;20058;-81
2022/03/12 02:52:39;;;;;;;12.98;7.03;;;5.90;47.30;;;;;;4987783;28;20058;-82
2022/03/12 02:55:05;;;;;;;12.98;6.90;;;5.90;47.30;;;;;;4942649;28;20489;-82
2022/03/12 02:57:31;;;;;;;10.52;6.50;;;5.90;47.30;;;;;;4942725;28;20035;-82
2022/03/12 03:00:04;;;;;;;10.43;6.95;;;5.90;47.40;;;;;;4940519;28;20125;-86
2022/03/12 03:02:39;;;;;;;10.00;6.63;;;5.90;47.40;;;;;;4957579;28;20050;-84
2022/03/12 03:05:36;;;;;;;12.98;7.18;;;5.90;47.50;;;;;;4942460;28;20054;-82
2022/03/12 03:08:07;;;;;;;10.45;6.93;;;5.90;47.30;;;;;;4956971;28;20042;-81
2022/03/12 03:10:35;;;;;;;15.48;7.90;;;5.90;47.40;;;;;;4957449;28;20098;-82
2022/03/12 03:13:29;;;;;;;9.77;7.00;;;5.90;47.50;;;;;;4940799;28;20043;-82
2022/03/12 03:15:59;;;;;;;13.77;6.65;;;5.90;47.40;;;;;;4940080;28;20499;-83
2022/03/12 03:18:28;;;;;;;12.73;6.95;;;5.90;47.50;;;;;;4940022;28;20054;-82
2022/03/12 03:20:55;;;;;;;13.73;6.95;;;5.90;47.40;;;;;;4973366;28;20057;-82
2022/03/12 03:23:25;;;;;;;11.93;7.30;;;6.00;47.60;;;;;;4957604;28;20150;-82
2022/03/12 03:25:51;;;;;;;10.93;6.93;;;5.90;47.60;;;;;;4941482;28;20042;-82
2022/03/12 03:28:17;;;;;;;10.30;6.53;;;5.90;47.60;;;;;;4957633;28;20050;-82
2022/03/12 03:30:43;;;;;;;11.60;7.15;;;5.90;47.80;;;;;;4942619;28;20058;-82
2022/03/12 03:33:15;;;;;;;12.63;7.80;;;5.80;47.80;;;;;;4941846;28;20092;-81
2022/03/12 03:35:42;;;;;;;12.98;7.03;;;5.90;47.90;;;;;;4957995;28;20484;-81
2022/03/12 03:38:09;;;;;;;15.10;7.00;;;5.80;47.90;;;;;;4957976;28;20105;-83
2022/03/12 03:40:36;;;;;;;10.38;7.28;;;5.80;48.10;;;;;;4958305;28;20049;-82
2022/03/12 03:43:03;;;;;;;12.98;6.93;;;5.80;48.20;;;;;;4941301;28;20039;-85
2022/03/12 03:45:30;;;;;;;10.63;6.57;;;5.80;48.20;;;;;;4969925;28;20041;-85
2022/03/12 03:47:56;;;;;;;11.63;7.05;;;5.90;48.30;;;;;;4932626;28;20421;-82
2022/03/12 03:50:25;;;;;;;10.45;7.25;;;5.80;48.30;;;;;;4941791;28;20042;-82
2022/03/12 03:53:03;;;;;;;14.52;7.75;;;5.70;48.20;;;;;;4927752;28;20523;-82
2022/03/12 03:55:30;;;;;;;11.80;7.72;;;5.80;48.30;;;;;;4929615;28;20109;-84
2022/03/12 03:57:57;;;;;;;11.35;6.60;;;5.70;48.40;;;;;;4959238;28;20400;-82
2022/03/12 04:00:24;;;;;;;10.75;6.63;;;5.60;48.40;;;;;;4975895;28;20046;-81
2022/03/12 04:03:04;;;;;;;12.40;7.47;;;5.50;48.40;;;;;;4941920;28;20464;-83
2022/03/12 04:05:32;;;;;;;11.13;6.75;;;5.50;48.50;;;;;;4963830;28;20039;-82
2022/03/12 04:07:59;;;;;;;14.27;7.10;;;5.50;48.60;;;;;;4931901;28;20050;-82
2022/03/12 04:10:25;;;;;;;12.82;6.65;;;5.30;48.80;;;;;;4957086;28;20049;-83
2022/03/12 04:12:51;;;;;;;11.85;7.15;;;5.30;49.00;;;;;;4959933;28;20051;-81
2022/03/12 04:15:17;;;;;;;12.15;7.28;;;5.30;49.20;;;;;;4962632;28;20053;-81
2022/03/12 04:17:44;;;;;;;12.15;7.30;;;5.20;49.10;;;;;;4942799;28;20105;-83
2022/03/12 04:20:14;;;;;;;11.23;7.25;;;5.20;49.30;;;;;;4978444;28;20078;-83
2022/03/12 04:22:40;;;;;;;12.85;7.22;;;5.10;49.30;;;;;;4923317;29;20133;-81
2022/03/12 04:25:11;;;;;;;12.70;6.93;;;5.20;49.20;;;;;;4956677;28;20150;-85
2022/03/12 04:27:38;;;;;;;10.73;6.82;;;5.20;49.30;;;;;;4959404;28;20515;-81
2022/03/12 04:30:06;;;;;;;13.20;6.70;;;5.20;49.30;;;;;;4969993;28;20098;-86
2022/03/12 04:32:32;;;;;;;16.13;6.93;;;5.20;49.30;;;;;;4948901;28;20771;-82
2022/03/12 04:34:58;;;;;;;12.48;6.93;;;5.30;49.50;;;;;;4961672;28;20065;-82
2022/03/12 04:37:24;;;;;;;13.52;7.00;;;5.20;49.50;;;;;;4962508;28;20543;-82
2022/03/12 04:39:49;;;;;;;10.27;6.90;;;5.30;49.60;;;;;;4925385;28;20456;-83
2022/03/12 04:42:18;;;;;;;13.73;7.53;;;5.20;49.80;;;;;;4947602;28;20074;-82
2022/03/12 04:44:44;;;;;;;11.68;6.68;;;5.30;49.70;;;;;;4954698;28;20130;-84
2022/03/12 04:47:10;;;;;;;10.23;7.15;;;5.20;49.50;;;;;;4940780;28;20126;-82
2022/03/12 04:49:36;;;;;;;11.63;7.18;;;5.30;49.60;;;;;;4963798;28;20042;-82
2022/03/12 04:52:02;;;;;;;12.15;7.05;;;5.30;49.60;;;;;;4926875;28;20048;-81
2022/03/12 04:54:32;;;;;;;11.50;7.40;;;5.20;49.60;;;;;;4954967;28;20051;-85
2022/03/12 04:57:05;;;;;;;11.18;6.60;;;5.20;49.60;;;;;;4992074;28;20852;-83
2022/03/12 04:59:30;;;;;;;11.43;6.65;;;5.20;49.70;;;;;;5003302;28;20050;-83
2022/03/12 05:01:59;;;;;;;12.18;6.45;;;5.10;49.80;;;;;;4990379;28;20049;-82
2022/03/12 05:04:24;;;;;;;12.23;6.85;;;5.00;49.90;;;;;;4972053;28;20046;-83
2022/03/12 05:06:50;;;;;;;12.70;6.90;;;5.00;50.30;;;;;;4959961;28;20443;-84
2022/03/12 05:09:16;;;;;;;12.32;6.88;;;5.00;50.50;;;;;;4957346;28;20050;-84
2022/03/12 05:11:42;;;;;;;11.20;6.68;;;4.90;50.50;;;;;;4988437;28;20057;-82
2022/03/12 05:14:10;;;;;;;11.23;6.72;;;4.90;50.60;;;;;;4996823;28;20050;-86
2022/03/12 05:16:36;;;;;;;15.25;7.43;;;4.90;50.70;;;;;;4963817;28;20092;-82
2022/03/12 05:19:06;;;;;;;11.48;6.53;;;4.90;50.90;;;;;;4972959;28;20453;-82
2022/03/12 05:21:32;;;;;;;12.10;6.68;;;4.90;51.10;;;;;;4990680;28;20045;-83
2022/03/12 05:23:58;;;;;;;9.50;7.30;;;4.90;51.20;;;;;;4974753;28;20054;-83
2022/03/12 05:26:23;;;;;;;13.00;6.70;;;4.80;51.20;;;;;;4991323;28;20053;-81
2022/03/12 05:28:49;;;;;;;11.82;6.68;;;4.80;51.20;;;;;;4972434;28;20050;-82
2022/03/12 05:31:16;;;;;;;14.07;6.78;;;4.60;51.30;;;;;;4976640;28;20113;-82
2022/03/12 05:33:43;;;;;;;13.13;6.78;;;4.70;51.40;;;;;;4985399;28;20084;-82
2022/03/12 05:36:09;;;;;;;11.73;6.80;;;4.70;51.40;;;;;;4975528;28;20491;-85
2022/03/12 05:38:36;;;;;;;12.25;7.53;;;4.70;51.40;;;;;;4991462;28;20043;-82
2022/03/12 05:41:06;;;;;;;10.25;6.63;;;4.70;51.30;;;;;;5001701;28;20042;-81
2022/03/12 05:43:33;;;;;;;11.63;6.65;;;4.70;51.30;;;;;;4971375;28;20065;-82
2022/03/12 05:46:00;;;;;;;9.52;6.57;;;4.70;51.40;;;;;;4975867;28;20081;-81
2022/03/12 05:48:27;;;;;;;13.57;7.00;;;4.70;51.30;;;;;;4988088;28;20056;-82
2022/03/12 05:50:53;;;;;;;10.30;6.10;;;4.70;51.30;;;;;;4977640;28;20058;-82
2022/03/12 05:53:19;;;;;;;11.07;7.28;;;4.70;51.30;;;;;;4974531;28;20091;-83
2022/03/12 05:55:46;;;;;;;9.35;6.53;;;4.70;51.40;;;;;;4972587;28;20514;-83
2022/03/12 05:58:15;;;;;;;12.55;7.28;;;4.70;51.60;;;;;;4989369;28;20048;-88
2022/03/12 06:00:41;;;;;;;10.57;6.90;;;4.70;51.70;;;;;;4957588;28;20129;-83
2022/03/12 06:03:10;;;;;;;10.30;7.15;;;4.70;51.70;;;;;;4958418;28;20065;-81
2022/03/12 06:05:40;;;;;;;12.25;6.80;;;4.80;51.70;;;;;;4976185;28;20046;-82
2022/03/12 06:08:07;;;;;;;12.32;6.80;;;4.80;51.70;;;;;;4946078;28;20050;-83
2022/03/12 06:10:34;;;;;;;13.80;7.60;;;4.90;51.50;;;;;;4957202;28;20046;-82
2022/03/12 06:13:01;;;;;;;13.00;7.38;;;4.90;51.60;;;;;;4958437;28;20053;-82
2022/03/12 06:15:27;;;;;;;14.63;7.45;;;5.00;51.40;;;;;;4946176;28;20051;-83
2022/03/12 06:17:53;;;;;;;13.73;7.60;;;5.00;51.40;;;;;;4958772;28;20038;-83
2022/03/12 06:20:21;;;;;;;11.98;6.75;;;5.10;51.20;;;;;;4974566;28;20129;-82
2022/03/12 06:22:48;;;;;;;11.98;6.85;;;5.10;51.00;;;;;;4950166;28;20047;-82
2022/03/12 06:25:16;;;;;;;12.73;7.03;;;5.10;51.00;;;;;;4956772;28;20046;-86
2022/03/12 06:27:43;;;;;;;10.65;6.65;;;5.20;51.00;;;;;;4956835;28;20644;-83
2022/03/12 06:30:12;;;;;;;13.13;7.03;;;5.20;50.90;;;;;;4952710;28;20058;-84
2022/03/12 06:32:40;;;;;;;10.75;6.82;;;5.20;50.60;;;;;;4990514;28;20133;-84
2022/03/12 06:35:06;;;;;;;12.88;7.45;;;5.20;50.50;;;;;;4980942;28;20057;-82
2022/03/12 06:37:32;;;;;;;14.95;6.75;;;5.30;50.50;;;;;;4961360;28;20058;-81
2022/03/12 06:39:59;;;;;;;15.63;6.72;;;5.30;50.50;;;;;;4958815;28;20108;-82
2022/03/12 06:42:25;;;;;;;14.32;7.07;;;5.40;50.80;;;;;;4973668;28;20442;-82
2022/03/12 06:44:54;;;;;;;13.55;7.00;;;5.40;50.90;;;;;;4957761;28;20136;-83
2022/03/12 06:47:20;;;;;;;9.60;6.63;;;5.40;50.80;;;;;;4974009;28;20046;-82
2022/03/12 06:49:46;;;;;;;12.48;6.85;;;5.40;50.70;;;;;;4958433;28;20057;-81
2022/03/12 06:52:11;;;;;;;11.45;6.55;;;5.40;50.60;;;;;;4958438;28;20042;-81
2022/03/12 06:54:38;;;;;;;11.43;7.05;;;5.50;50.60;;;;;;4957882;28;20392;-83
2022/03/12 06:57:04;;;;;;;9.43;6.47;;;5.60;50.50;;;;;;4960525;28;20089;-83
2022/03/12 06:59:31;;;;;;;14.98;6.97;;;5.50;50.30;;;;;;4991190;28;20049;-81
2022/03/12 07:01:57;;;;;;;12.38;6.50;;;5.60;50.40;;;;;;4957549;28;20542;-82
2022/03/12 07:04:23;;;;;;;11.52;6.50;;;5.70;50.60;;;;;;4973961;28;20060;-82
2022/03/12 07:06:49;;;;;;;12.38;6.70;;;5.80;50.40;;;;;;4990322;28;20038;-83
2022/03/12 07:09:16;;;;;;;14.57;7.45;;;5.80;50.20;;;;;;5004941;28;20042;-84
2022/03/12 07:11:42;;;;;;;11.13;6.63;;;5.90;50.10;;;;;;5013434;28;20080;-81
2022/03/12 07:14:07;;;;;;;13.02;6.65;;;6.00;50.20;;;;;;4971761;28;20078;-82
2022/03/12 07:16:34;;;;;;;11.85;7.40;;;6.00;50.10;;;;;;4986101;28;20050;-81
2022/03/12 07:19:01;;;;;;;11.65;7.22;;;5.90;49.90;;;;;;4971965;28;20043;-81
2022/03/12 07:21:27;;;;;;;11.60;7.25;;;5.80;50.20;;;;;;4973364;28;20093;-81
2022/03/12 07:23:53;;;;;;;13.32;6.90;;;5.80;50.40;;;;;;4985106;28;20523;-84
2022/03/12 07:26:20;;;;;;;10.52;6.70;;;5.70;50.40;;;;;;4971246;28;20047;-84
2022/03/12 07:28:47;;;;;;;9.52;6.30;;;5.70;50.30;;;;;;4967376;28;20215;-84
2022/03/12 07:31:14;;;;;;;11.40;7.63;;;5.60;50.70;;;;;;4978382;28;20046;-84
2022/03/12 07:33:40;;;;;;;10.25;6.90;;;5.60;50.60;;;;;;4955342;28;20133;-84
2022/03/12 07:36:06;;;;;;;11.40;6.75;;;5.60;50.70;;;;;;4964017;28;20133;-83
2022/03/12 07:38:32;;;;;;;12.60;6.88;;;5.60;51.10;;;;;;4986436;28;20058;-82
2022/03/12 07:40:58;;;;;;;11.93;7.03;;;5.60;51.30;;;;;;4964199;28;20081;-83
2022/03/12 07:43:25;;;;;;;12.63;7.00;;;5.60;51.40;;;;;;4980927;28;20057;-83
2022/03/12 07:45:51;;;;;;;11.63;7.15;;;5.60;51.70;;;;;;4971558;28;20137;-85
2022/03/12 07:48:17;;;;;;;11.23;7.50;;;5.70;51.60;;;;;;4976090;28;20047;-84
2022/03/12 07:50:44;;;;;;;10.23;7.40;;;5.70;51.60;;;;;;4976149;28;20062;-83
2022/03/12 07:53:12;;;;;;;12.20;6.82;;;5.80;51.70;;;;;;4985935;28;20062;-83
2022/03/12 07:55:40;;;;;;;10.55;7.05;;;5.90;51.70;;;;;;4993759;28;20395;-83
2022/03/12 07:58:06;;;;;;;11.27;7.32;;;6.00;51.70;;;;;;5000292;28;20047;-83
2022/03/12 08:00:32;;;;;;;11.50;6.75;;;6.10;51.60;;;;;;4959731;28;20401;-82
2022/03/12 08:02:58;;;;;;;17.05;9.57;;;6.20;51.50;;;;;;4988745;28;20105;-83
2022/03/12 08:05:25;;;;;;;10.52;7.18;;;6.30;51.40;;;;;;4992267;28;20133;-83
2022/03/12 08:07:54;;;;;;;14.65;7.63;;;6.40;51.70;;;;;;4993688;28;20046;-84
2022/03/12 08:10:22;;;;;;;11.75;7.43;;;6.50;51.60;;;;;;4976572;28;20046;-89
2022/03/12 08:12:48;;;;;;;12.80;7.43;;;6.60;51.40;;;;;;4993689;28;20119;-83
2022/03/12 08:15:15;;;;;;;11.55;6.95;;;6.80;51.30;;;;;;4997858;28;20116;-82
2022/03/12 08:17:42;;;;;;;11.73;7.13;;;6.80;51.20;;;;;;4989126;28;20038;-83
2022/03/12 08:20:09;;;;;;;12.65;7.50;;;6.90;51.10;;;;;;4989788;28;20058;-84
2022/03/12 08:22:41;;;;;;;18.15;7.85;;;7.00;51.10;;;;;;4980689;28;20042;-86
2022/03/12 08:25:09;;;;;;;14.68;8.15;;;7.20;51.10;;;;;;4983045;28;20058;-85
2022/03/12 08:27:36;;;;;;;14.77;7.70;;;7.30;51.00;;;;;;4991879;28;20456;-83
2022/03/12 08:30:07;;;;;;;13.15;8.18;;;7.40;51.10;;;;;;4992227;28;20061;-84
2022/03/12 08:32:35;;;;;;;12.38;7.75;;;7.40;51.10;;;;;;4990489;28;20054;-88
2022/03/12 08:35:05;;;;;;;11.18;7.47;;;7.50;51.20;;;;;;4977373;28;20130;-88
2022/03/12 08:37:32;;;;;;;12.40;7.72;;;7.60;51.30;;;;;;4985249;28;20153;-88
2022/03/12 08:39:58;;;;;;;12.57;8.07;;;7.60;51.20;;;;;;4993193;28;20054;-88
2022/03/12 08:42:24;;;;;;;15.48;8.27;;;7.90;51.40;;;;;;4975708;28;20065;-91
2022/03/12 08:44:51;;;;;;;14.93;8.82;;;8.00;51.40;;;;;;4976568;28;20376;-90
2022/03/12 08:47:17;;;;;;;10.73;7.55;;;8.20;51.10;;;;;;4977613;28;20047;-85
2022/03/12 08:49:42;;;;;;;13.07;8.27;;;8.40;50.80;;;;;;4983460;28;20046;-84
2022/03/12 08:52:11;;;;;;;13.18;7.45;;;8.60;50.50;;;;;;5001460;28;20065;-85
2022/03/12 08:54:37;;;;;;;20.85;9.77;;;8.70;50.30;;;;;;4966890;28;20090;-82
2022/03/12 08:57:05;;;;;;;11.98;8.48;;;8.80;50.10;;;;;;4989077;28;20117;-85
2022/03/12 08:59:30;;;;;;;11.98;8.43;;;8.90;49.80;;;;;;4971087;28;20053;-84
2022/03/12 09:01:57;;;;;;;12.02;7.90;;;9.00;49.70;;;;;;4970895;28;20042;-82
2022/03/12 09:04:23;;;;;;;13.93;7.97;;;9.10;49.80;;;;;;4974876;28;20526;-86
2022/03/12 09:06:49;;;;;;;15.57;8.15;;;9.20;49.70;;;;;;4986233;28;20117;-83
2022/03/12 09:09:15;;;;;;;16.17;8.10;;;9.30;49.60;;;;;;4969924;28;20395;-83
2022/03/12 09:11:41;;;;;;;10.98;7.93;;;9.30;49.80;;;;;;4988879;28;20069;-86
2022/03/12 09:14:07;;;;;;;12.20;8.23;;;9.40;49.60;;;;;;4981636;28;20124;-83
2022/03/12 09:16:36;;;;;;;11.95;8.52;;;9.50;49.50;;;;;;4993460;28;20053;-82
2022/03/12 09:19:02;;;;;;;13.85;8.07;;;9.60;49.40;;;;;;4987659;28;20571;-83
2022/03/12 09:21:28;;;;;;;14.13;8.82;;;9.70;49.50;;;;;;4988861;28;20054;-86
2022/03/12 09:23:54;;;;;;;14.82;8.48;;;9.90;49.50;;;;;;4956849;28;20045;-87
2022/03/12 09:26:21;;;;;;;12.95;8.27;;;10.00;49.30;;;;;;4973743;28;20353;-85
2022/03/12 09:28:48;;;;;;;12.23;8.32;;;10.10;49.20;;;;;;4957551;28;20046;-85
2022/03/12 09:31:14;;;;;;;14.02;8.20;;;10.40;49.50;;;;;;4988759;28;20112;-87
2022/03/12 09:33:40;;;;;;;11.95;8.73;;;10.40;49.40;;;;;;4973834;28;20050;-83
2022/03/12 09:36:09;;;;;;;15.05;8.90;;;10.60;49.30;;;;;;4971741;28;20038;-86
2022/03/12 09:38:36;;;;;;;12.75;8.48;;;10.70;49.60;;;;;;4973075;28;20116;-84
2022/03/12 09:41:02;;;;;;;16.17;8.45;;;10.80;49.40;;;;;;4986752;28;20042;-84
2022/03/12 09:43:28;;;;;;;14.40;9.35;;;11.00;49.20;;;;;;4990959;28;20082;-86
2022/03/12 09:45:54;;;;;;;11.98;8.38;;;11.30;49.30;;;;;;4975613;28;20542;-83
2022/03/12 09:48:20;;;;;;;12.85;8.05;;;11.50;49.40;;;;;;4971813;28;20101;-84
2022/03/12 09:50:46;;;;;;;16.48;9.25;;;11.60;49.30;;;;;;4964845;28;20051;-86
2022/03/12 09:53:12;;;;;;;14.70;9.30;;;11.90;49.30;;;;;;4972566;28;20836;-88
2022/03/12 09:55:38;;;;;;;16.10;8.73;;;12.20;49.40;;;;;;4992131;28;20125;-86
2022/03/12 09:58:04;;;;;;;16.25;9.05;;;12.30;49.20;;;;;;4974046;28;20061;-88
2022/03/12 10:00:30;;;;;;;12.13;8.98;;;12.50;48.70;;;;;;4989896;28;20510;-85
2022/03/12 10:02:57;;;;;;;12.48;8.80;;;12.70;48.50;;;;;;4975156;28;20082;-85
2022/03/12 10:05:23;;;;;;;13.63;8.82;;;12.80;48.80;;;;;;4986260;28;20578;-87
2022/03/12 10:07:49;;;;;;;14.60;9.43;;;12.90;49.00;;;;;;4956804;28;20162;-86
2022/03/12 10:10:21;;;;;;;12.93;8.68;;;13.10;49.10;;;;;;4986651;28;20479;-84
2022/03/12 10:12:49;;;;;;;15.35;9.10;;;13.20;49.50;;;;;;4972515;28;20185;-89
2022/03/12 10:15:16;;;;;;;14.93;8.52;;;13.40;49.70;;;;;;4989838;28;20069;-85
2022/03/12 10:17:43;;;;;;;13.60;9.13;;;13.60;49.50;;;;;;4985643;28;20069;-84
2022/03/12 10:20:11;;;;;;;11.75;8.88;;;13.70;49.80;;;;;;4991302;28;20054;-82
2022/03/12 10:22:42;;;;;;;13.40;8.80;;;13.90;49.90;;;;;;4969491;28;20484;-79
2022/03/12 10:25:08;;;;;;;13.00;8.70;;;14.10;50.10;;;;;;4989178;28;20062;-84
2022/03/12 10:27:34;;;;;;;12.40;8.63;;;14.10;50.10;;;;;;4975932;28;20046;-83
2022/03/12 10:30:01;;;;;;;13.88;9.13;;;14.10;50.20;;;;;;4979117;28;20058;-82
2022/03/12 10:32:30;;;;;;;12.98;9.43;;;14.10;50.70;;;;;;4974712;28;20035;-83
2022/03/12 10:34:59;;;;;;;14.90;9.15;;;14.10;51.00;;;;;;4991566;28;20054;-83
2022/03/12 10:37:30;;;;;;;14.70;9.23;;;14.20;51.10;;;;;;4991613;28;20066;-82
2022/03/12 10:40:23;;;;;;;17.45;9.80;;;14.10;51.30;;;;;;4990955;28;20050;-83
2022/03/12 10:42:52;;;;;;;12.32;8.82;;;14.30;51.70;;;;;;4990539;28;20039;-83
2022/03/12 10:45:20;;;;;;;13.75;9.07;;;14.40;51.20;;;;;;4992186;28;20065;-83
2022/03/12 10:47:48;;;;;;;12.13;8.95;;;14.50;51.20;;;;;;4990466;28;20086;-84
2022/03/12 10:50:21;;;;;;;13.13;9.10;;;14.50;50.80;;;;;;4976419;28;20496;-80
2022/03/12 10:52:55;;;;;;;12.50;9.50;;;14.60;50.90;;;;;;4988254;28;20046;-83
2022/03/12 10:55:28;;;;;;;13.60;9.60;;;14.70;50.50;;;;;;4996278;28;20136;-82
2022/03/12 10:58:03;;;;;;;13.23;9.48;;;14.80;50.70;;;;;;4990280;28;20132;-83
2022/03/12 11:00:41;;;;;;;14.57;9.73;;;14.90;50.40;;;;;;4990314;28;20141;-84
2022/03/12 11:03:13;;;;;;;13.90;9.50;;;15.10;50.50;;;;;;4973788;28;20050;-86
2022/03/12 11:05:41;;;;;;;16.33;9.40;;;15.20;50.10;;;;;;4989394;28;20813;-83
2022/03/12 11:08:19;;;;;;;12.55;8.93;;;15.50;50.00;;;;;;4973392;28;20058;-83
2022/03/12 11:10:50;;;;;;;12.18;9.00;;;15.50;49.60;;;;;;5005533;28;20101;-82
2022/03/12 11:13:47;;;;;;;12.20;8.75;;;15.50;49.80;;;;;;4973610;28;20480;-83
2022/03/12 11:16:24;;;;;;;;;;;15.60;50.10;;;;;;4993051;28;20113;-85
2022/03/12 11:18:52;;;;;;;13.73;8.43;;;15.60;50.70;;;;;;4993218;28;20013;-83
2022/03/12 11:21:33;;;;;;;17.60;9.40;;;15.80;50.40;;;;;;4977809;28;20057;-83
2022/03/12 11:23:59;;;;;;;12.75;8.43;;;15.90;50.20;;;;;;4993998;28;20128;-83
2022/03/12 11:26:26;;;;;;;10.88;8.63;;;16.00;50.00;;;;;;4993741;28;20105;-84
2022/03/12 11:28:56;;;;;;;11.50;8.77;;;16.10;49.80;;;;;;4992963;28;20582;-82
2022/03/12 11:31:37;;;;;;;13.18;8.52;;;16.10;50.10;;;;;;4993963;28;20053;-83
2022/03/12 11:34:24;;;;;;;11.38;8.45;;;16.10;50.20;;;;;;4977376;28;20140;-83
2022/03/12 11:37:13;;;;;;;12.15;8.45;;;16.00;50.40;;;;;;4977178;28;20046;-83
2022/03/12 11:39:42;;;;;;;12.57;8.48;;;16.20;50.90;;;;;;4960539;28;20050;-84
2022/03/12 11:42:17;;;;;;;11.65;8.55;;;16.50;50.40;;;;;;4977117;28;20058;-83
2022/03/12 11:44:51;;;;;;;13.98;8.75;;;16.80;49.90;;;;;;4993330;28;20062;-84
2022/03/12 11:47:26;;;;;;;10.63;7.25;;;16.90;49.30;;;;;;4977129;28;20061;-84
2022/03/12 11:49:54;;;;;;;10.35;8.10;;;16.60;50.50;;;;;;4976850;28;20053;-82
2022/03/12 11:52:20;;;;;;;10.75;7.68;;;16.40;50.60;;;;;;4976691;28;20104;-82
2022/03/12 11:54:47;;;;;;;11.80;8.60;;;16.50;50.60;;;;;;4959794;28;20054;-82
2022/03/12 11:57:23;;;;;;;12.38;8.13;;;16.40;50.50;;;;;;4960873;28;20221;-85
2022/03/12 11:59:50;;;;;;;10.52;8.20;;;16.80;50.60;;;;;;4976619;28;20049;-83
2022/03/12 12:02:32;;;;;;;13.02;8.57;;;17.50;49.40;;;;;;4992646;28;20042;-82
2022/03/12 12:04:59;;;;;;;10.98;8.00;;;17.90;48.50;;;;;;4992800;28;20065;-85
2022/03/12 12:07:32;;;;;;;13.45;7.75;;;18.20;47.70;;;;;;4976682;28;20073;-82
2022/03/12 12:09:58;;;;;;;10.70;7.22;;;18.20;47.30;;;;;;4992978;28;20054;-82
2022/03/12 12:12:27;;;;;;;9.40;6.75;;;18.00;47.50;;;;;;4976378;28;20053;-84
2022/03/12 12:14:57;;;;;;;9.95;6.90;;;18.30;47.10;;;;;;4959837;28;20054;-87
2022/03/12 12:17:24;;;;;;;9.77;7.22;;;19.00;46.20;;;;;;4976722;28;20468;-83
2022/03/12 12:19:50;;;;;;;9.88;7.22;;;19.60;45.10;;;;;;4992409;28;20129;-83
2022/03/12 12:22:18;;;;;;;12.60;7.30;;;20.00;45.10;;;;;;4992609;28;20045;-82
2022/03/12 12:24:44;;;;;;;9.85;6.80;;;20.20;43.80;;;;;;4976158;28;20056;-83
2022/03/12 12:27:12;;;;;;;9.85;7.20;;;20.30;43.50;;;;;;4960311;28;20046;-82
2022/03/12 12:29:41;;;;;;;8.80;6.93;;;20.00;43.10;;;;;;4992976;28;20138;-85
2022/03/12 12:32:12;;;;;;;8.38;6.78;;;19.30;43.80;;;;;;4977044;28;20546;-85
2022/03/12 12:34:58;;;;;;;12.70;6.80;;;19.00;44.70;;;;;;4976540;28;20133;-87
2022/03/12 12:37:44;;;;;;;8.23;6.70;;;18.90;43.80;;;;;;4990841;28;20066;-82
2022/03/12 12:40:30;;;;;;;9.55;6.45;;;18.70;44.30;;;;;;4991514;28;20066;-84
2022/03/12 12:43:02;;;;;;;11.10;6.40;;;18.50;45.20;;;;;;4974858;28;20112;-83
2022/03/12 12:45:32;;;;;;;11.15;7.50;;;18.20;45.80;;;;;;4991648;28;20069;-83
2022/03/12 12:48:20;;;;;;;12.57;7.50;;;18.20;45.90;;;;;;4990836;28;20057;-84
2022/03/12 12:50:58;;;;;;;9.75;6.70;;;18.40;45.00;;;;;;4990740;28;20038;-82